
Distance (Route):
Temperature : -42.5°C
Humidity : 0%
Pressure : 0hPa| Receiver | Frames | First received | Last received |
|---|---|---|---|
| LZ4TU-5 | 85 | 2026-09-03 11:27:35 | 2026-09-03 12:46:09 |
| Receiver | Date | Latitude | Longitude | Direction | Speed | Altitude | Climb | Temperature | Humidity | Pressure | Voltage | Killtimer | Uptime | BKT | XDATA |
|---|---|---|---|---|---|---|---|---|---|---|---|---|---|---|---|
| LZ4TU-5 | 2026-09-03 12:46:09 | 43.13981 | 22.32144 | 255° | 24km/h | 29269m | 6.5m/s | -42.5°C | 0% | 0hPa | 0V | 00:00:00 | 00:00:00 | 00:00:00 | |
| LZ4TU-5 | 2026-09-03 12:44:56 | 43.13877 | 22.32375 | 319° | 18km/h | 28796m | 6.3m/s | -43.5°C | 0.0% | 0hPa | 0V | 00:00:00 | 00:00:00 | 00:00:00 | |
| LZ4TU-5 | 2026-09-03 12:44:46 | 43.13866 | 22.32418 | 55° | 4km/h | 28732m | 6.4m/s | -43.5°C | 0% | 0hPa | 0V | 00:00:00 | 00:00:00 | 00:00:00 | |
| LZ4TU-5 | 2026-09-03 12:42:29 | 43.14023 | 22.32762 | 118° | 9km/h | 27851m | 6.2m/s | -44.7°C | 0.0% | 0hPa | 0V | 00:00:00 | 00:00:00 | 00:00:00 | |
| LZ4TU-5 | 2026-09-03 12:42:15 | 43.14031 | 22.32740 | 134° | 2km/h | 27761m | 6.1m/s | -45.0°C | 0.0% | 0hPa | 0V | 00:00:00 | 00:00:00 | 00:00:00 | |
| LZ4TU-5 | 2026-09-03 12:41:58 | 43.13987 | 22.32726 | 307° | 15km/h | 27657m | 5.9m/s | -45.1°C | 0% | 0hPa | 0V | 00:00:00 | 00:00:00 | 00:00:00 | |
| LZ4TU-5 | 2026-09-03 12:40:36 | 43.14064 | 22.32772 | 185° | 9km/h | 27143m | 6.3m/s | -45.6°C | 0% | 0hPa | 0V | 00:00:00 | 00:00:00 | 00:00:00 | |
| LZ4TU-5 | 2026-09-03 12:37:01 | 43.13629 | 22.32137 | 241° | 11km/h | 25777m | 6.4m/s | -49.6°C | 0.0% | 0hPa | 0V | 00:00:00 | 00:00:00 | 00:00:00 | |
| LZ4TU-5 | 2026-09-03 12:36:56 | 43.13640 | 22.32151 | 193° | 5km/h | 25744m | 6.4m/s | -49.4°C | 0.0% | 0hPa | 0V | 00:00:00 | 00:00:00 | 00:00:00 | |
| LZ4TU-5 | 2026-09-03 12:36:52 | 43.13636 | 22.32145 | 280° | 7km/h | 25718m | 6.2m/s | -49.4°C | 0.0% | 0hPa | 0V | 00:00:00 | 00:00:00 | 00:00:00 | |
| LZ4TU-5 | 2026-09-03 12:36:42 | 43.13642 | 22.32167 | 352° | 7km/h | 25653m | 6.2m/s | -49.9°C | 0.0% | 0hPa | 0V | 00:00:00 | 00:00:00 | 00:00:00 | |
| LZ4TU-5 | 2026-09-03 12:36:37 | 43.13631 | 22.32172 | 268° | 4km/h | 25622m | 6.1m/s | -49.8°C | 0.0% | 0hPa | 0V | 00:00:00 | 00:00:00 | 00:00:00 | |
| LZ4TU-5 | 2026-09-03 12:36:13 | 43.13632 | 22.32206 | 316° | 2km/h | 25477m | 6.2m/s | -49.3°C | 0% | 0hPa | 0V | 00:00:00 | 00:00:00 | 00:00:00 | |
| LZ4TU-5 | 2026-09-03 12:18:18 | 43.13368 | 22.29537 | 45° | 22km/h | 19246m | 5.6m/s | -56.7°C | 0.0% | 0hPa | 0V | 00:00:00 | 00:00:00 | 00:00:00 | |
| LZ4TU-5 | 2026-09-03 12:18:10 | 43.13356 | 22.29502 | 15° | 7km/h | 19201m | 6.4m/s | -56.3°C | 0% | 0hPa | 0V | 00:00:00 | 00:00:00 | 00:00:00 | |
| LZ4TU-5 | 2026-09-03 12:15:07 | 43.13121 | 22.28464 | 116° | 13km/h | 18191m | 5.3m/s | -54.8°C | 0.0% | 0hPa | 0V | 00:00:00 | 00:00:00 | 00:00:00 | |
| LZ4TU-5 | 2026-09-03 12:14:59 | 43.13100 | 22.28427 | 87° | 11km/h | 18144m | 6.0m/s | -54.6°C | 0.0% | 0hPa | 0V | 00:00:00 | 00:00:00 | 00:00:00 | |
| LZ4TU-5 | 2026-09-03 12:14:43 | 43.13131 | 22.28356 | 131° | 31km/h | 18048m | 5.6m/s | -55.3°C | 0.0% | 0hPa | 0V | 00:00:00 | 00:00:00 | 00:00:00 | |
| LZ4TU-5 | 2026-09-03 12:14:13 | 43.13232 | 22.28082 | 96° | 24km/h | 17892m | 5.8m/s | -56.4°C | 0.0% | 0hPa | 0V | 00:00:00 | 00:00:00 | 00:00:00 | |
| LZ4TU-5 | 2026-09-03 12:14:01 | 43.13262 | 22.27929 | 115° | 35km/h | 17829m | 5.7m/s | -56.1°C | 0.0% | 0hPa | 0V | 00:00:00 | 00:00:00 | 00:00:00 | |
| LZ4TU-5 | 2026-09-03 12:13:54 | 43.13271 | 22.27836 | 87° | 35km/h | 17792m | 3.7m/s | -56.1°C | 0.0% | 0hPa | 0V | 00:00:00 | 00:00:00 | 00:00:00 | |
| LZ4TU-5 | 2026-09-03 12:13:47 | 43.13291 | 22.27763 | 94° | 44km/h | 17755m | 6.0m/s | -56.3°C | 0.0% | 0hPa | 0V | 00:00:00 | 00:00:00 | 00:00:00 | |
| LZ4TU-5 | 2026-09-03 12:13:42 | 43.13291 | 22.27690 | 90° | 35km/h | 17725m | 6.6m/s | -56.2°C | 0.0% | 0hPa | 0V | 00:00:00 | 00:00:00 | 00:00:00 | |
| LZ4TU-5 | 2026-09-03 12:11:20 | 43.13432 | 22.25526 | 82° | 47km/h | 16971m | 5.4m/s | -57.1°C | 0.0% | 0hPa | 0V | 00:00:00 | 00:00:00 | 00:00:00 | |
| LZ4TU-5 | 2026-09-03 12:11:16 | 43.13422 | 22.25463 | 87° | 49km/h | 16952m | 5.9m/s | -57.0°C | 0.0% | 0hPa | 0V | 00:00:00 | 00:00:00 | 00:00:00 | |
| LZ4TU-5 | 2026-09-03 12:10:59 | 43.13420 | 22.25110 | 90° | 69km/h | 16865m | 4.4m/s | -57.7°C | 0.0% | 0hPa | 0V | 00:00:00 | 00:00:00 | 00:00:00 | |
| LZ4TU-5 | 2026-09-03 12:10:03 | 43.13258 | 22.23945 | 80° | 58km/h | 16580m | 4.6m/s | -57.9°C | 0.0% | 0hPa | 0V | 00:00:00 | 00:00:00 | 00:00:00 | |
| LZ4TU-5 | 2026-09-03 12:07:42 | 43.12894 | 22.22190 | 113° | 40km/h | 15805m | 4.4m/s | -56.9°C | 0% | 0hPa | 0V | 00:00:00 | 00:00:00 | 00:00:00 | |
| LZ4TU-5 | 2026-09-03 12:07:21 | 43.12945 | 22.21819 | 90° | 53km/h | 15698m | 6.1m/s | -57.4°C | 0.0% | 0hPa | 0V | 00:00:00 | 00:00:00 | 00:00:00 | |
| LZ4TU-5 | 2026-09-03 12:07:14 | 43.12955 | 22.21679 | 104° | 62km/h | 15666m | 4.8m/s | -57.3°C | 0.0% | 0hPa | 0V | 00:00:00 | 00:00:00 | 00:00:00 | |
| LZ4TU-5 | 2026-09-03 12:06:51 | 43.12958 | 22.21236 | 85° | 60km/h | 15549m | 4.9m/s | -57.0°C | 0.0% | 0hPa | 0V | 00:00:00 | 00:00:00 | 00:00:00 | |
| LZ4TU-5 | 2026-09-03 12:06:31 | 43.12913 | 22.20890 | 81° | 47km/h | 15447m | 4.7m/s | -56.5°C | 0.0% | 0hPa | 0V | 00:00:00 | 00:00:00 | 00:00:00 | |
| LZ4TU-5 | 2026-09-03 12:06:20 | 43.12878 | 22.20698 | 72° | 22km/h | 15382m | 5.8m/s | -55.9°C | 0% | 0hPa | 0V | 00:00:00 | 00:00:00 | 00:00:00 | |
| LZ4TU-5 | 2026-09-03 12:05:04 | 43.12904 | 22.19574 | 102° | 64km/h | 14982m | 4.4m/s | -56.0°C | 0.3% | 0hPa | 0V | 00:00:00 | 00:00:00 | 00:00:00 | |
| LZ4TU-5 | 2026-09-03 12:04:44 | 43.12961 | 22.19228 | 99° | 42km/h | 14893m | 4.1m/s | -56.2°C | 0.5% | 0hPa | 0V | 00:00:00 | 00:00:00 | 00:00:00 | |
| LZ4TU-5 | 2026-09-03 12:04:38 | 43.12982 | 22.19139 | 108° | 47km/h | 14865m | 5.1m/s | -56.1°C | 0.6% | 0hPa | 0V | 00:00:00 | 00:00:00 | 00:00:00 | |
| LZ4TU-5 | 2026-09-03 12:04:35 | 43.12992 | 22.19074 | 96° | 44km/h | 14847m | 3.7m/s | -56.1°C | 0.7% | 0hPa | 0V | 00:00:00 | 00:00:00 | 00:00:00 | |
| LZ4TU-5 | 2026-09-03 12:04:27 | 43.13013 | 22.18976 | 113° | 42km/h | 14816m | 4.5m/s | -56.0°C | 0.7% | 0hPa | 0V | 00:00:00 | 00:00:00 | 00:00:00 | |
| LZ4TU-5 | 2026-09-03 12:03:34 | 43.13262 | 22.18168 | 115° | 53km/h | 14575m | 4.6m/s | -55.2°C | 0.4% | 0hPa | 0V | 00:00:00 | 00:00:00 | 00:00:00 | |
| LZ4TU-5 | 2026-09-03 12:03:27 | 43.13290 | 22.18038 | 104° | 53km/h | 14543m | 4.8m/s | -55.4°C | 0% | 0hPa | 0V | 00:00:00 | 00:00:00 | 00:00:00 | |
| LZ4TU-5 | 2026-09-03 12:02:54 | 43.13407 | 22.17369 | 90° | 58km/h | 14390m | 5.6m/s | -55.9°C | 0.8% | 0hPa | 0V | 00:00:00 | 00:00:00 | 00:00:00 | |
| LZ4TU-5 | 2026-09-03 12:02:18 | 43.13493 | 22.16712 | 97° | 46km/h | 14210m | 4.6m/s | -55.3°C | 0% | 0hPa | 0V | 00:00:00 | 00:00:00 | 00:00:00 | |
| LZ4TU-5 | 2026-09-03 11:59:03 | 43.14511 | 22.13088 | 108° | 66km/h | 13254m | 6.3m/s | -52.4°C | 0% | 0hPa | 0V | 00:00:00 | 00:00:00 | 00:00:00 | |
| LZ4TU-5 | 2026-09-03 11:58:29 | 43.14645 | 22.12358 | 99° | 78km/h | 13079m | 5.9m/s | -52.5°C | 0% | 0hPa | 0V | 00:00:00 | 00:00:00 | 00:00:00 | |
| LZ4TU-5 | 2026-09-03 11:42:47 | 43.26981 | 21.99386 | 148° | 49km/h | 8489m | 5.9m/s | -33.2°C | 20.8% | 0hPa | 0V | 00:00:00 | 00:00:00 | 00:00:00 | |
| LZ4TU-5 | 2026-09-03 11:42:11 | 43.27234 | 21.99089 | 137° | 31km/h | 8310m | 4.7m/s | -32.1°C | 30.5% | 0hPa | 0V | 00:00:00 | 00:00:00 | 00:00:00 | |
| LZ4TU-5 | 2026-09-03 11:42:05 | 43.27270 | 21.99029 | 118° | 37km/h | 8281m | 2.7m/s | -31.9°C | 0% | 0hPa | 0V | 00:00:00 | 00:00:00 | 00:00:00 | |
| LZ4TU-5 | 2026-09-03 11:40:42 | 43.27636 | 21.98308 | 131° | 38km/h | 7865m | 4.5m/s | -28.8°C | 45.3% | 0hPa | 0V | 00:00:00 | 00:00:00 | 00:00:00 | |
| LZ4TU-5 | 2026-09-03 11:40:35 | 43.27683 | 21.98233 | 119° | 35km/h | 7829m | 4.8m/s | -28.5°C | 44.4% | 0hPa | 0V | 00:00:00 | 00:00:00 | 00:00:00 | |
| LZ4TU-5 | 2026-09-03 11:40:21 | 43.27746 | 21.98077 | 120° | 33km/h | 7768m | 4.0m/s | -28.0°C | 0% | 0hPa | 0V | 00:00:00 | 00:00:00 | 00:00:00 | |
| LZ4TU-5 | 2026-09-03 11:39:28 | 43.27953 | 21.97434 | 119° | 35km/h | 7501m | 4.4m/s | -25.7°C | 27.0% | 0hPa | 0V | 00:00:00 | 00:00:00 | 00:00:00 | |
| LZ4TU-5 | 2026-09-03 11:39:19 | 43.27980 | 21.97330 | 118° | 31km/h | 7461m | 5.4m/s | -25.4°C | 28.3% | 0hPa | 0V | 00:00:00 | 00:00:00 | 00:00:00 | |
| LZ4TU-5 | 2026-09-03 11:37:13 | 43.28293 | 21.95836 | 117° | 49km/h | 6828m | 4.6m/s | -20.3°C | 29.5% | 0hPa | 0V | 00:00:00 | 00:00:00 | 00:00:00 | |
| LZ4TU-5 | 2026-09-03 11:37:09 | 43.28312 | 21.95794 | 125° | 26km/h | 6807m | 5.9m/s | -20.2°C | 30.8% | 0hPa | 0V | 00:00:00 | 00:00:00 | 00:00:00 | |
| LZ4TU-5 | 2026-09-03 11:37:03 | 43.28349 | 21.95732 | 127° | 38km/h | 6777m | 4.0m/s | -19.9°C | 31.4% | 0hPa | 0V | 00:00:00 | 00:00:00 | 00:00:00 | |
| LZ4TU-5 | 2026-09-03 11:36:53 | 43.28386 | 21.95632 | 150° | 26km/h | 6731m | 3.6m/s | -19.5°C | 33.4% | 0hPa | 0V | 00:00:00 | 00:00:00 | 00:00:00 | |
| LZ4TU-5 | 2026-09-03 11:35:55 | 43.28590 | 21.95007 | 117° | 24km/h | 6440m | 7.0m/s | -18.2°C | 46.2% | 0hPa | 0V | 00:00:00 | 00:00:00 | 00:00:00 | |
| LZ4TU-5 | 2026-09-03 11:35:47 | 43.28618 | 21.94929 | 107° | 47km/h | 6397m | 4.9m/s | -18.0°C | 38.5% | 0hPa | 0V | 00:00:00 | 00:00:00 | 00:00:00 | |
| LZ4TU-5 | 2026-09-03 11:35:38 | 43.28660 | 21.94812 | 132° | 31km/h | 6351m | 6.5m/s | -17.6°C | 36.8% | 0hPa | 0V | 00:00:00 | 00:00:00 | 00:00:00 | |
| LZ4TU-5 | 2026-09-03 11:35:32 | 43.28668 | 21.94749 | 83° | 33km/h | 6324m | 3.1m/s | -17.4°C | 0% | 0hPa | 0V | 00:00:00 | 00:00:00 | 00:00:00 | |
| LZ4TU-5 | 2026-09-03 11:35:16 | 43.28709 | 21.94590 | 115° | 31km/h | 6241m | 5.1m/s | -16.7°C | 35.8% | 0hPa | 0V | 00:00:00 | 00:00:00 | 00:00:00 | |
| LZ4TU-5 | 2026-09-03 11:35:04 | 43.28754 | 21.94440 | 112° | 53km/h | 6180m | 7.1m/s | -16.4°C | 38.5% | 0hPa | 0V | 00:00:00 | 00:00:00 | 00:00:00 | |
| LZ4TU-5 | 2026-09-03 11:33:55 | 43.28964 | 21.93858 | 107° | 20km/h | 5831m | 4.7m/s | -13.5°C | 22.6% | 0hPa | 0V | 00:00:00 | 00:00:00 | 00:00:00 | |
| LZ4TU-5 | 2026-09-03 11:33:50 | 43.28978 | 21.93822 | 105° | 27km/h | 5807m | 4.5m/s | -13.4°C | 24.2% | 0hPa | 0V | 00:00:00 | 00:00:00 | 00:00:00 | |
| LZ4TU-5 | 2026-09-03 11:33:39 | 43.29003 | 21.93764 | 111° | 22km/h | 5762m | 5.8m/s | -13.1°C | 23.4% | 0hPa | 0V | 00:00:00 | 00:00:00 | 00:00:00 | |
| LZ4TU-5 | 2026-09-03 11:33:32 | 43.29027 | 21.93680 | 147° | 26km/h | 5718m | 7.8m/s | -12.8°C | 20.4% | 0hPa | 0V | 00:00:00 | 00:00:00 | 00:00:00 | |
| LZ4TU-5 | 2026-09-03 11:33:27 | 43.29037 | 21.93657 | 92° | 15km/h | 5689m | 5.6m/s | -12.5°C | 0% | 0hPa | 0V | 00:00:00 | 00:00:00 | 00:00:00 | |
| LZ4TU-5 | 2026-09-03 11:32:42 | 43.29121 | 21.93219 | 71° | 47km/h | 5464m | 5.3m/s | -10.9°C | 18.5% | 0hPa | 0V | 00:00:00 | 00:00:00 | 00:00:00 | |
| LZ4TU-5 | 2026-09-03 11:32:09 | 43.29162 | 21.92900 | 106° | 51km/h | 5308m | 4.9m/s | -9.8°C | 14.4% | 0hPa | 0V | 00:00:00 | 00:00:00 | 00:00:00 | |
| LZ4TU-5 | 2026-09-03 11:32:04 | 43.29182 | 21.92858 | 77° | 9km/h | 5279m | 6.3m/s | -9.7°C | 13.8% | 0hPa | 0V | 00:00:00 | 00:00:00 | 00:00:00 | |
| LZ4TU-5 | 2026-09-03 11:31:56 | 43.29193 | 21.92780 | 141° | 35km/h | 5244m | 4.7m/s | -9.5°C | 12.4% | 0hPa | 0V | 00:00:00 | 00:00:00 | 00:00:00 | |
| LZ4TU-5 | 2026-09-03 11:31:51 | 43.29205 | 21.92745 | 91° | 38km/h | 5214m | 4.3m/s | -9.4°C | 13.6% | 0hPa | 0V | 00:00:00 | 00:00:00 | 00:00:00 | |
| LZ4TU-5 | 2026-09-03 11:31:44 | 43.29225 | 21.92696 | 21° | 7km/h | 5186m | 3.4m/s | -9.2°C | 13.6% | 0hPa | 0V | 00:00:00 | 00:00:00 | 00:00:00 | |
| LZ4TU-5 | 2026-09-03 11:31:39 | 43.29220 | 21.92651 | 106° | 44km/h | 5164m | 6.2m/s | -9.1°C | 13.3% | 0hPa | 0V | 00:00:00 | 00:00:00 | 00:00:00 | |
| LZ4TU-5 | 2026-09-03 11:31:33 | 43.29234 | 21.92613 | 108° | 18km/h | 5135m | 4.3m/s | -8.8°C | 13.5% | 0hPa | 0V | 00:00:00 | 00:00:00 | 00:00:00 | |
| LZ4TU-5 | 2026-09-03 11:31:27 | 43.29265 | 21.92552 | 140° | 37km/h | 5115m | 3.2m/s | -8.6°C | 14.5% | 0hPa | 0V | 00:00:00 | 00:00:00 | 00:00:00 | |
| LZ4TU-5 | 2026-09-03 11:30:05 | 43.29421 | 21.91986 | 70° | 24km/h | 4725m | 4.1m/s | -6.2°C | 28.7% | 0hPa | 0V | 00:00:00 | 00:00:00 | 00:00:00 | |
| LZ4TU-5 | 2026-09-03 11:30:00 | 43.29438 | 21.91976 | 190° | 27km/h | 4701m | 2.7m/s | -6.1°C | 28.8% | 0hPa | 0V | 00:00:00 | 00:00:00 | 00:00:00 | |
| LZ4TU-5 | 2026-09-03 11:29:42 | 43.29477 | 21.91932 | 180° | 20km/h | 4608m | 7.1m/s | -5.6°C | 0% | 0hPa | 0V | 00:00:00 | 00:00:00 | 00:00:00 | |
| LZ4TU-5 | 2026-09-03 11:28:17 | 43.29601 | 21.91625 | 361° | 11km/h | 4169m | 4.7m/s | -2.4°C | 29.6% | 0hPa | 0V | 00:00:00 | 00:00:00 | 00:00:00 | |
| LZ4TU-5 | 2026-09-03 11:28:12 | 43.29611 | 21.91620 | 162° | 24km/h | 4138m | 5.1m/s | -2.1°C | 29.5% | 0hPa | 0V | 00:00:00 | 00:00:00 | 00:00:00 | |
| LZ4TU-5 | 2026-09-03 11:28:07 | 43.29629 | 21.91636 | 237° | 13km/h | 4117m | 4.0m/s | -1.9°C | 28.4% | 0hPa | 0V | 00:00:00 | 00:00:00 | 00:00:00 | |
| LZ4TU-5 | 2026-09-03 11:27:55 | 43.29675 | 21.91612 | 195° | 27km/h | 4054m | 2.5m/s | -1.3°C | 27.9% | 0hPa | 0V | 00:00:00 | 00:00:00 | 00:00:00 | |
| LZ4TU-5 | 2026-09-03 11:27:50 | 43.29690 | 21.91620 | 64° | 13km/h | 4026m | 5.9m/s | -1.1°C | 27.0% | 0hPa | 0V | 00:00:00 | 00:00:00 | 00:00:00 | |
| LZ4TU-5 | 2026-09-03 11:27:35 | 43.29700 | 21.91586 | 274° | 7km/h | 3953m | 4.5m/s | -0.6°C | 0% | 0hPa | 0V | 00:00:00 | 00:00:00 | 00:00:00 |